createdAt,value
2023-03-11T00:00:52.136Z,82.97
2023-03-11T00:01:52.217Z,82.90
2023-03-11T00:02:52.094Z,83.22
2023-03-11T00:03:52.096Z,83.01
2023-03-11T00:04:52.162Z,82.34
2023-03-11T00:05:52.055Z,82.39
2023-03-11T00:06:52.062Z,82.73
2023-03-11T00:07:52.061Z,82.84
2023-03-11T00:08:52.040Z,82.80
2023-03-11T00:09:52.025Z,82.28
2023-03-11T00:10:52.119Z,82.01
2023-03-11T00:11:52.006Z,82.63
2023-03-11T00:12:52.048Z,82.73
2023-03-11T00:13:51.969Z,82.28
2023-03-11T00:14:51.970Z,81.76
2023-03-11T00:15:51.953Z,81.97
2023-03-11T00:16:52.032Z,81.66
2023-03-11T00:17:51.940Z,81.66
2023-03-11T00:18:51.918Z,81.90
2023-03-11T00:19:51.927Z,82.18
2023-03-11T00:20:51.899Z,81.87
2023-03-11T00:21:51.926Z,81.66
2023-03-11T00:22:51.875Z,82.11
2023-03-11T00:23:51.873Z,82.49
2023-03-11T00:24:51.862Z,82.28
2023-03-11T00:25:51.843Z,82.14
2023-03-11T00:26:51.824Z,81.45
2023-03-11T00:27:51.870Z,81.37
2023-03-11T00:28:51.828Z,81.49
2023-03-11T00:29:51.802Z,82.42
2023-03-11T00:30:51.896Z,82.42
2023-03-11T00:31:51.770Z,82.94
2023-03-11T00:32:51.807Z,82.73
2023-03-11T00:33:51.805Z,83.15
2023-03-11T00:34:51.739Z,83.18
2023-03-11T00:35:51.774Z,83.25
2023-03-11T00:36:51.723Z,83.15
2023-03-11T00:37:51.704Z,83.18
2023-03-11T00:38:51.852Z,83.98
2023-03-11T00:39:51.678Z,84.01
2023-03-11T00:40:51.702Z,84.19
2023-03-11T00:41:51.664Z,84.01
2023-03-11T00:42:51.667Z,84.39
2023-03-11T00:43:51.641Z,84.22
2023-03-11T00:44:51.665Z,84.64
2023-03-11T00:45:51.674Z,84.60
2023-03-11T00:46:51.599Z,83.77
2023-03-11T00:47:51.609Z,83.60
2023-03-11T00:48:51.600Z,83.70
2023-03-11T00:49:51.577Z,83.60
2023-03-11T00:50:51.616Z,83.42
2023-03-11T00:51:51.556Z,83.22
2023-03-11T00:52:51.548Z,83.22
2023-03-11T00:53:51.527Z,83.53
2023-03-11T00:54:51.519Z,83.53
2023-03-11T00:55:51.499Z,83.48
2023-03-11T00:56:51.532Z,82.86
2023-03-11T00:57:51.500Z,83.25
2023-03-11T00:58:51.469Z,84.08
2023-03-11T00:59:51.458Z,84.25
2023-03-11T01:00:51.450Z,84.15
2023-03-11T01:01:51.450Z,83.91
2023-03-11T01:02:51.527Z,84.74
2023-03-11T01:03:51.435Z,84.64
2023-03-11T01:04:51.436Z,84.22
2023-03-11T01:05:51.448Z,84.22
2023-03-11T01:06:51.400Z,84.19
2023-03-11T01:07:51.377Z,83.67
2023-03-11T01:08:51.372Z,83.25
2023-03-11T01:09:51.350Z,83.50
2023-03-11T01:10:51.358Z,83.81
2023-03-11T01:11:51.316Z,84.08
2023-03-11T01:12:51.501Z,83.91
2023-03-11T01:13:51.339Z,84.08
2023-03-11T01:14:51.329Z,83.67
2023-03-11T01:15:51.363Z,83.36
2023-03-11T01:16:51.284Z,83.11
2023-03-11T01:17:51.424Z,83.25
2023-03-11T01:18:51.289Z,83.53
2023-03-11T01:19:51.252Z,83.56
2023-03-11T01:20:51.233Z,83.67
2023-03-11T01:21:51.228Z,84.29
2023-03-11T01:22:51.234Z,84.33
2023-03-11T01:23:51.199Z,84.29
2023-03-11T01:24:52.160Z,84.43
2023-03-11T01:25:51.174Z,84.43
2023-03-11T01:26:51.144Z,84.47
2023-03-11T01:27:51.171Z,84.53
2023-03-11T01:28:51.130Z,84.33
2023-03-11T01:29:51.131Z,84.12
2023-03-11T01:30:51.151Z,84.33
2023-03-11T01:31:51.157Z,84.12
2023-03-11T01:32:51.173Z,85.10
2023-03-11T01:33:51.095Z,85.57
2023-03-11T01:34:51.064Z,85.68
2023-03-11T01:35:51.075Z,85.24
2023-03-11T01:36:51.081Z,85.16
2023-03-11T01:37:51.020Z,84.84
2023-03-11T01:38:51.010Z,84.58
2023-03-11T01:39:51.008Z,84.58
2023-03-11T01:40:50.987Z,84.27
2023-03-11T01:41:50.969Z,83.68
2023-03-11T01:42:51.011Z,83.53
2023-03-11T01:43:50.951Z,82.56
2023-03-11T01:44:50.949Z,81.52
2023-03-11T01:45:51.030Z,80.80
2023-03-11T01:46:50.990Z,80.63
2023-03-11T01:47:50.907Z,80.18
2023-03-11T01:48:50.939Z,79.86
2023-03-11T01:49:50.898Z,80.04
2023-03-11T01:50:50.884Z,79.27
2023-03-11T01:51:50.867Z,78.99
2023-03-11T01:52:50.986Z,79.10
2023-03-11T01:53:50.922Z,79.24
2023-03-11T01:54:51.995Z,79.51
2023-03-11T01:55:50.822Z,78.99
2023-03-11T01:56:50.819Z,78.92
2023-03-11T01:57:50.794Z,78.86
2023-03-11T01:58:50.806Z,79.06
2023-03-11T01:59:50.776Z,79.03
2023-03-11T02:00:50.808Z,78.96
2023-03-11T02:01:50.881Z,78.82
2023-03-11T02:02:50.786Z,78.65
2023-03-11T02:03:50.729Z,79.06
2023-03-11T02:04:50.729Z,78.86
2023-03-11T02:05:50.708Z,78.96
2023-03-11T02:06:53.658Z,78.41
2023-03-11T02:07:50.691Z,78.69
2023-03-11T02:08:50.704Z,79.17
2023-03-11T02:09:50.762Z,79.06
2023-03-11T02:10:50.651Z,79.06
2023-03-11T02:11:50.643Z,78.96
2023-03-11T02:12:50.686Z,78.41
2023-03-11T02:13:50.637Z,78.41
2023-03-11T02:14:50.630Z,78.51
2023-03-11T02:15:50.609Z,78.20
2023-03-11T02:16:50.623Z,78.41
2023-03-11T02:17:50.770Z,78.75
2023-03-11T02:18:50.576Z,78.96
2023-03-11T02:19:50.556Z,78.75
2023-03-11T02:20:50.550Z,79.06
2023-03-11T02:21:50.588Z,79.17
2023-03-11T02:22:50.532Z,78.96
2023-03-11T02:23:50.629Z,78.75
2023-03-11T02:24:50.512Z,78.61
2023-03-11T02:25:50.523Z,78.13
2023-03-11T02:26:50.488Z,78.55
2023-03-11T02:27:50.468Z,78.13
2023-03-11T02:28:50.472Z,78.23
2023-03-11T02:29:50.488Z,77.92
2023-03-11T02:30:50.475Z,77.61
2023-03-11T02:31:50.489Z,77.58
2023-03-11T02:32:50.546Z,77.16
2023-03-11T02:33:50.409Z,77.58
2023-03-11T02:34:50.390Z,77.30
2023-03-11T02:35:50.422Z,78.03
2023-03-11T02:36:50.380Z,78.20
2023-03-11T02:37:50.357Z,78.20
2023-03-11T02:38:50.352Z,78.65
2023-03-11T02:39:50.332Z,79.17
2023-03-11T02:40:50.323Z,79.48
2023-03-11T02:41:50.349Z,79.34
2023-03-11T02:42:50.305Z,79.06
2023-03-11T02:43:50.283Z,79.34
2023-03-11T02:44:50.280Z,79.55
2023-03-11T02:45:50.274Z,79.65
2023-03-11T02:46:50.302Z,79.90
2023-03-11T02:47:50.274Z,80.52
2023-03-11T02:48:50.231Z,80.21
2023-03-11T02:49:50.217Z,80.32
2023-03-11T02:50:50.213Z,80.52
2023-03-11T02:51:50.203Z,81.04
2023-03-11T02:52:50.211Z,80.69
2023-03-11T02:53:50.177Z,80.73
2023-03-11T02:54:50.159Z,80.94
2023-03-11T02:55:50.146Z,81.04
2023-03-11T02:56:50.215Z,80.69
2023-03-11T02:57:50.289Z,80.59
2023-03-11T02:58:50.145Z,80.69
2023-03-11T02:59:50.111Z,80.59
2023-03-11T03:00:50.136Z,80.45
2023-03-11T03:01:50.091Z,80.18
2023-03-11T03:02:50.069Z,80.28
2023-03-11T03:03:50.132Z,80.35
2023-03-11T03:04:50.074Z,80.49
2023-03-11T03:05:50.072Z,80.59
2023-03-11T03:06:50.029Z,81.04
2023-03-11T03:07:50.040Z,81.01
2023-03-11T03:08:50.007Z,81.11
2023-03-11T03:09:50.059Z,81.25
2023-03-11T03:10:50.017Z,81.77
2023-03-11T03:11:49.975Z,81.84
2023-03-11T03:12:49.979Z,81.67
2023-03-11T03:13:49.991Z,81.32
2023-03-11T03:14:49.946Z,81.21
2023-03-11T03:15:49.930Z,80.69
2023-03-11T03:16:50.120Z,81.04
2023-03-11T03:17:49.916Z,81.01
2023-03-11T03:18:49.889Z,81.25
2023-03-11T03:19:49.899Z,81.56
2023-03-11T03:20:49.882Z,81.35
2023-03-11T03:21:49.876Z,81.56
2023-03-11T03:22:49.920Z,81.35
2023-03-11T03:23:49.838Z,80.83
2023-03-11T03:24:49.814Z,80.94
2023-03-11T03:25:49.819Z,81.11
2023-03-11T03:26:49.811Z,80.80
2023-03-11T03:27:49.881Z,80.69
2023-03-11T03:28:50.534Z,81.11
2023-03-11T03:29:49.791Z,80.90
2023-03-11T03:30:49.768Z,80.69
2023-03-11T03:31:49.795Z,80.69
2023-03-11T03:32:49.862Z,80.66
2023-03-11T03:33:49.879Z,80.49
2023-03-11T03:34:49.723Z,80.94
2023-03-11T03:35:49.749Z,81.11
2023-03-11T03:36:49.683Z,81.01
2023-03-11T03:37:49.694Z,80.55
2023-03-11T03:38:49.698Z,80.63
2023-03-11T03:39:49.651Z,81.07
2023-03-11T03:40:49.640Z,80.80
2023-03-11T03:41:49.631Z,80.59
2023-03-11T03:42:49.618Z,80.59
2023-03-11T03:43:49.669Z,80.90
2023-03-11T03:44:49.808Z,80.80
2023-03-11T03:45:49.643Z,81.35
2023-03-11T03:46:49.602Z,81.73
2023-03-11T03:47:49.577Z,81.46
2023-03-11T03:48:49.565Z,81.42
2023-03-11T03:49:49.578Z,81.52
2023-03-11T03:50:49.570Z,81.98
2023-03-11T03:51:49.541Z,82.04
2023-03-11T03:52:49.562Z,81.28
2023-03-11T03:53:50.236Z,82.18
2023-03-11T03:54:49.561Z,82.91
2023-03-11T03:55:49.564Z,82.87
2023-03-11T03:56:49.546Z,82.91
2023-03-11T03:57:49.450Z,83.22
2023-03-11T03:58:49.468Z,83.74
2023-03-11T03:59:49.425Z,83.81
2023-03-11T04:00:49.464Z,82.84
2023-03-11T04:01:49.459Z,82.77
2023-03-11T04:02:49.488Z,83.08
2023-03-11T04:03:49.447Z,83.15
2023-03-11T04:04:49.375Z,82.56
2023-03-11T04:05:49.382Z,82.77
2023-03-11T04:06:49.384Z,82.87
2023-03-11T04:07:49.345Z,82.32
2023-03-11T04:08:49.323Z,81.49
2023-03-11T04:09:49.322Z,81.01
2023-03-11T04:10:49.306Z,81.42
2023-03-11T04:11:49.303Z,81.49
2023-03-11T04:12:49.329Z,80.93
2023-03-11T04:13:49.288Z,80.10
2023-03-11T04:14:49.262Z,79.48
2023-03-11T04:15:49.239Z,80.24
2023-03-11T04:16:49.288Z,81.01
2023-03-11T04:17:49.217Z,80.66
2023-03-11T04:18:49.262Z,80.14
2023-03-11T04:19:49.205Z,80.69
2023-03-11T04:20:49.194Z,81.46
2023-03-11T04:21:49.190Z,81.80
2023-03-11T04:22:49.207Z,80.41
2023-03-11T04:23:49.178Z,80.14
2023-03-11T04:24:49.181Z,80.41
2023-03-11T04:25:49.154Z,80.35
2023-03-11T04:26:49.159Z,80.10
2023-03-11T04:27:49.147Z,80.10
2023-03-11T04:28:49.138Z,80.59
2023-03-11T04:29:49.088Z,81.11
2023-03-11T04:30:49.150Z,81.63
2023-03-11T04:31:49.066Z,81.77
2023-03-11T04:32:49.137Z,82.08
2023-03-11T04:33:49.044Z,82.08
2023-03-11T04:34:49.042Z,82.08
2023-03-11T04:35:49.095Z,81.73
2023-03-11T04:36:49.063Z,81.63
2023-03-11T04:37:48.998Z,81.15
2023-03-11T04:38:48.975Z,81.42
2023-03-11T04:39:48.977Z,81.32
2023-03-11T04:40:48.977Z,80.87
2023-03-11T04:41:48.993Z,80.69
2023-03-11T04:42:48.942Z,81.21
2023-03-11T04:43:48.921Z,80.76
2023-03-11T04:44:49.005Z,80.62
2023-03-11T04:45:48.944Z,79.61
2023-03-11T04:46:48.925Z,79.61
2023-03-11T04:47:48.909Z,80.63
2023-03-11T04:48:48.878Z,81.21
2023-03-11T04:49:48.863Z,81.01
2023-03-11T04:50:48.843Z,80.52
2023-03-11T04:51:48.896Z,79.93
2023-03-11T04:52:48.841Z,80.14
2023-03-11T04:53:48.816Z,80.69
2023-03-11T04:54:48.820Z,81.11
2023-03-11T04:55:48.785Z,81.35
2023-03-11T04:56:48.788Z,81.67
2023-03-11T04:57:48.804Z,81.77
2023-03-11T04:58:48.779Z,81.32
2023-03-11T04:59:48.766Z,81.52
2023-03-11T05:00:48.756Z,81.21
2023-03-11T05:01:48.842Z,80.76
2023-03-11T05:02:48.716Z,80.24
2023-03-11T05:03:48.751Z,80.45
2023-03-11T05:04:48.722Z,79.83
2023-03-11T05:05:48.685Z,80.35
2023-03-11T05:06:48.665Z,80.31
2023-03-11T05:07:48.703Z,79.58
2023-03-11T05:08:48.653Z,79.20
2023-03-11T05:09:48.674Z,79.76
2023-03-11T05:10:48.623Z,80.83
2023-03-11T05:11:48.672Z,81.11
2023-03-11T05:12:48.637Z,80.45
2023-03-11T05:13:48.599Z,79.83
2023-03-11T05:14:48.586Z,79.83
2023-03-11T05:15:48.621Z,80.04
2023-03-11T05:16:48.554Z,79.83
2023-03-11T05:17:48.555Z,80.18
2023-03-11T05:18:48.536Z,80.45
2023-03-11T05:19:48.536Z,80.49
2023-03-11T05:20:48.566Z,81.11
2023-03-11T05:21:48.494Z,81.32
2023-03-11T05:22:48.495Z,81.63
2023-03-11T05:23:48.482Z,81.63
2023-03-11T05:24:48.464Z,81.63
2023-03-11T05:25:48.446Z,81.98
2023-03-11T05:26:48.646Z,82.50
2023-03-11T05:27:48.435Z,82.70
2023-03-11T05:28:48.469Z,83.01
2023-03-11T05:29:48.428Z,82.50
2023-03-11T05:30:48.432Z,82.60
2023-03-11T05:31:48.420Z,82.50
2023-03-11T05:32:48.418Z,82.91
2023-03-11T05:33:48.356Z,82.67
2023-03-11T05:34:48.370Z,82.18
2023-03-11T05:35:48.415Z,82.35
2023-03-11T05:36:48.384Z,82.39
2023-03-11T05:37:48.347Z,83.01
2023-03-11T05:38:48.308Z,83.18
2023-03-11T05:39:48.336Z,82.35
2023-03-11T05:40:48.303Z,82.77
2023-03-11T05:41:48.272Z,82.77
2023-03-11T05:42:48.280Z,82.87
2023-03-11T05:43:48.320Z,83.29
2023-03-11T05:44:48.292Z,83.43
2023-03-11T05:45:48.237Z,83.84
2023-03-11T05:46:48.306Z,84.05
2023-03-11T05:47:48.228Z,84.16
2023-03-11T05:48:48.232Z,83.50
2023-03-11T05:49:48.345Z,83.33
2023-03-11T05:50:48.179Z,83.84
2023-03-11T05:51:48.161Z,83.74
2023-03-11T05:52:48.159Z,83.64
2023-03-11T05:53:48.145Z,83.81
2023-03-11T05:54:48.122Z,83.81
2023-03-11T05:55:48.211Z,83.39
2023-03-11T05:56:48.119Z,83.39
2023-03-11T05:57:48.108Z,83.39
2023-03-11T05:58:48.092Z,82.94
2023-03-11T05:59:48.073Z,83.01
2023-03-11T06:00:48.196Z,83.33
2023-03-11T06:01:48.042Z,83.01
2023-03-11T06:02:48.044Z,82.91
2023-03-11T06:03:48.155Z,82.56
2023-03-11T06:04:48.193Z,82.08
2023-03-11T06:05:48.024Z,82.12
2023-03-11T06:06:48.009Z,82.39
2023-03-11T06:07:47.980Z,82.29
2023-03-11T06:08:47.984Z,82.68
2023-03-11T06:09:47.974Z,82.74
2023-03-11T06:10:49.062Z,82.15
2023-03-11T06:11:47.942Z,82.53
2023-03-11T06:12:47.952Z,82.74
2023-03-11T06:13:47.939Z,83.12
2023-03-11T06:14:47.901Z,83.33
2023-03-11T06:15:47.897Z,83.12
2023-03-11T06:16:47.869Z,83.33
2023-03-11T06:17:47.870Z,83.47
2023-03-11T06:18:47.881Z,83.78
2023-03-11T06:19:47.841Z,84.30
2023-03-11T06:20:47.829Z,84.30
2023-03-11T06:21:47.878Z,84.92
2023-03-11T06:22:47.802Z,84.78
2023-03-11T06:23:47.807Z,84.22
2023-03-11T06:24:47.830Z,83.39
2023-03-11T06:25:47.783Z,83.39
2023-03-11T06:26:47.760Z,83.22
2023-03-11T06:27:47.750Z,83.64
2023-03-11T06:28:47.757Z,83.70
2023-03-11T06:29:48.740Z,83.50
2023-03-11T06:30:47.773Z,83.43
2023-03-11T06:31:47.787Z,83.53
2023-03-11T06:32:47.739Z,83.60
2023-03-11T06:33:47.711Z,83.39
2023-03-11T06:34:47.687Z,83.22
2023-03-11T06:35:47.692Z,83.74
2023-03-11T06:36:47.690Z,83.39
2023-03-11T06:37:47.749Z,83.29
2023-03-11T06:38:47.628Z,83.22
2023-03-11T06:39:47.612Z,84.09
2023-03-11T06:40:47.616Z,84.58
2023-03-11T06:41:47.599Z,84.12
2023-03-11T06:42:47.593Z,83.84
2023-03-11T06:43:47.576Z,84.68
2023-03-11T06:44:47.581Z,84.53
2023-03-11T06:45:47.587Z,84.33
2023-03-11T06:46:47.535Z,84.19
2023-03-11T06:47:47.550Z,83.87
2023-03-11T06:48:47.506Z,83.87
2023-03-11T06:49:47.529Z,83.15
2023-03-11T06:50:48.506Z,82.87
2023-03-11T06:51:47.518Z,82.42
2023-03-11T06:52:47.471Z,82.11
2023-03-11T06:53:47.482Z,81.80
2023-03-11T06:54:47.451Z,81.38
2023-03-11T06:55:47.433Z,80.83
2023-03-11T06:56:47.419Z,79.61
2023-03-11T06:57:47.465Z,79.72
2023-03-11T06:58:47.442Z,79.51
2023-03-11T06:59:47.477Z,78.82
2023-03-11T07:00:47.417Z,79.10
2023-03-11T07:01:47.365Z,78.06
2023-03-11T07:02:47.374Z,78.09
2023-03-11T07:03:47.398Z,78.27
2023-03-11T07:04:47.343Z,77.64
2023-03-11T07:05:47.356Z,78.16
2023-03-11T07:06:47.323Z,78.03
2023-03-11T07:07:47.303Z,77.51
2023-03-11T07:08:47.299Z,77.20
2023-03-11T07:09:47.280Z,77.40
2023-03-11T07:10:47.316Z,77.30
2023-03-11T07:11:47.266Z,76.85
2023-03-11T07:12:47.246Z,76.78
2023-03-11T07:13:47.231Z,76.89
2023-03-11T07:14:47.226Z,77.09
2023-03-11T07:15:47.224Z,77.09
2023-03-11T07:16:47.272Z,76.75
2023-03-11T07:17:47.201Z,76.71
2023-03-11T07:18:47.187Z,75.88
2023-03-11T07:19:47.176Z,75.78
2023-03-11T07:20:47.172Z,75.98
2023-03-11T07:21:47.156Z,75.63
2023-03-11T07:22:47.237Z,75.32
2023-03-11T07:23:47.194Z,74.88
2023-03-11T07:24:47.108Z,74.67
2023-03-11T07:25:47.103Z,74.08
2023-03-11T07:26:47.099Z,74.50
2023-03-11T07:27:47.077Z,74.60
2023-03-11T07:28:47.118Z,74.63
2023-03-11T07:29:47.086Z,74.46
2023-03-11T07:30:47.047Z,74.71
2023-03-11T07:31:47.127Z,74.98
2023-03-11T07:32:47.068Z,74.26
2023-03-11T07:33:47.049Z,74.43
2023-03-11T07:34:47.013Z,74.08
2023-03-11T07:35:47.018Z,73.39
2023-03-11T07:36:46.994Z,73.53
2023-03-11T07:37:46.993Z,72.81
2023-03-11T07:38:46.996Z,72.50
2023-03-11T07:39:47.078Z,72.39
2023-03-11T07:40:46.959Z,72.19
2023-03-11T07:41:46.921Z,72.05
2023-03-11T07:42:46.928Z,71.49
2023-03-11T07:43:47.052Z,72.22
2023-03-11T07:44:46.898Z,72.15
2023-03-11T07:45:46.976Z,70.70
2023-03-11T07:46:46.881Z,69.49
2023-03-11T07:47:46.867Z,69.01
2023-03-11T07:48:46.854Z,69.24
2023-03-11T07:49:46.843Z,69.73
2023-03-11T07:50:46.820Z,69.15
2023-03-11T07:51:46.871Z,68.01
2023-03-11T07:52:46.813Z,68.49
2023-03-11T07:53:46.790Z,69.46
2023-03-11T07:54:46.804Z,69.46
2023-03-11T07:55:46.772Z,69.22
2023-03-11T07:56:46.748Z,68.19
2023-03-11T07:57:46.776Z,67.63
2023-03-11T07:58:46.726Z,68.28
2023-03-11T07:59:46.743Z,68.93
2023-03-11T08:00:46.707Z,69.35
2023-03-11T08:01:46.720Z,69.56
2023-03-11T08:02:46.721Z,69.17
2023-03-11T08:03:46.814Z,69.76
2023-03-11T08:04:46.680Z,69.73
2023-03-11T08:05:46.803Z,69.01
2023-03-11T08:06:46.649Z,69.48
2023-03-11T08:07:46.622Z,70.42
2023-03-11T08:08:46.631Z,70.31
2023-03-11T08:09:46.820Z,70.18
2023-03-11T08:10:46.629Z,70.39
2023-03-11T08:11:48.756Z,70.39
2023-03-11T08:12:46.570Z,70.25
2023-03-11T08:13:46.570Z,69.63
2023-03-11T08:14:46.691Z,69.87
2023-03-11T08:15:46.603Z,70.52
2023-03-11T08:16:46.551Z,71.80
2023-03-11T08:17:46.530Z,72.53
2023-03-11T08:18:46.516Z,72.84
2023-03-11T08:19:46.555Z,73.01
2023-03-11T08:20:46.498Z,73.32
2023-03-11T08:21:46.573Z,72.80
2023-03-11T08:22:57.569Z,72.74
2023-03-11T08:23:47.466Z,73.01
2023-03-11T08:24:46.466Z,72.46
2023-03-11T08:25:46.435Z,72.32
2023-03-11T08:26:46.423Z,71.77
2023-03-11T08:27:46.764Z,71.97
2023-03-11T08:28:46.410Z,72.18
2023-03-11T08:29:46.384Z,72.28
2023-03-11T08:30:46.460Z,71.63
2023-03-11T08:31:46.664Z,71.35
2023-03-11T08:32:46.387Z,71.87
2023-03-11T08:33:46.381Z,72.28
2023-03-11T08:34:46.435Z,71.84
2023-03-11T08:35:46.408Z,71.87
2023-03-11T08:36:46.341Z,71.77
2023-03-11T08:37:46.356Z,71.25
2023-03-11T08:38:46.440Z,70.80
2023-03-11T08:39:46.296Z,71.08
2023-03-11T08:40:46.312Z,70.67
2023-03-11T08:41:46.324Z,70.67
2023-03-11T08:42:46.252Z,70.76
2023-03-11T08:43:46.247Z,70.46
2023-03-11T08:44:46.325Z,70.39
2023-03-11T08:45:46.213Z,70.18
2023-03-11T08:46:46.344Z,70.36
2023-03-11T08:47:46.194Z,69.53
2023-03-11T08:48:46.213Z,70.25
2023-03-11T08:49:46.196Z,70.21
2023-03-11T08:50:53.911Z,69.15
2023-03-11T08:51:47.205Z,68.35
2023-03-11T08:52:46.160Z,68.25
2023-03-11T08:53:46.123Z,68.28
2023-03-11T08:54:46.124Z,68.46
2023-03-11T08:55:46.106Z,69.18
2023-03-11T08:56:46.177Z,68.74
2023-03-11T08:57:46.094Z,68.70
2023-03-11T08:58:46.091Z,67.39
2023-03-11T08:59:46.043Z,67.08
2023-03-11T09:00:46.044Z,66.50
2023-03-11T09:01:46.025Z,65.84
2023-03-11T09:02:46.156Z,66.80
2023-03-11T09:03:46.399Z,67.91
2023-03-11T09:04:45.997Z,66.87
2023-03-11T09:05:46.069Z,66.74
2023-03-11T09:06:45.965Z,66.09
2023-03-11T09:07:45.973Z,65.69
2023-03-11T09:08:45.979Z,63.62
2023-03-11T09:09:45.945Z,63.07
2023-03-11T09:10:45.924Z,62.55
2023-03-11T09:11:45.913Z,61.97
2023-03-11T09:12:45.897Z,63.31
2023-03-11T09:13:45.946Z,64.11
2023-03-11T09:14:45.898Z,63.04
2023-03-11T09:15:45.864Z,61.55
2023-03-11T09:16:45.882Z,62.27
2023-03-11T09:17:45.854Z,61.01
2023-03-11T09:18:45.842Z,61.24
2023-03-11T09:19:45.814Z,61.24
2023-03-11T09:20:45.836Z,61.07
2023-03-11T09:21:45.806Z,60.35
2023-03-11T09:22:45.786Z,61.87
2023-03-11T09:23:45.775Z,62.29
2023-03-11T09:24:45.773Z,62.02
2023-03-11T09:25:45.762Z,61.04
2023-03-11T09:26:45.798Z,60.42
2023-03-11T09:27:45.727Z,60.73
2023-03-11T09:28:45.717Z,60.08
2023-03-11T09:29:45.709Z,59.44
2023-03-11T09:30:45.723Z,60.21
2023-03-11T09:31:45.719Z,59.25
2023-03-11T09:32:45.762Z,58.79
2023-03-11T09:33:45.689Z,58.92
2023-03-11T09:34:45.653Z,59.23
2023-03-11T09:35:45.740Z,59.56
2023-03-11T09:36:45.634Z,58.17
2023-03-11T09:37:45.766Z,57.09
2023-03-11T09:38:45.642Z,56.00
2023-03-11T09:39:45.640Z,55.33
2023-03-11T09:40:47.016Z,54.05
2023-03-11T09:41:57.579Z,55.28
2023-03-11T09:42:46.575Z,53.19
2023-03-11T09:43:45.632Z,54.71
2023-03-11T09:44:46.489Z,54.17
2023-03-11T09:45:45.542Z,56.00
2023-03-11T09:46:46.518Z,56.41
2023-03-11T09:47:45.551Z,57.06
2023-03-11T09:48:45.545Z,57.26
2023-03-11T09:49:45.670Z,57.26
2023-03-11T09:50:45.583Z,56.98
2023-03-11T09:51:45.597Z,58.53
2023-03-11T09:52:45.468Z,60.44
2023-03-11T09:53:45.599Z,62.57
2023-03-11T09:54:45.617Z,65.26
2023-03-11T09:55:45.552Z,67.22
2023-03-11T09:56:45.445Z,68.26
2023-03-11T09:57:45.556Z,68.26
2023-03-11T09:58:45.398Z,68.49
2023-03-11T09:59:45.375Z,67.70
2023-03-11T10:00:45.421Z,68.08
2023-03-11T10:01:45.478Z,66.12
2023-03-11T10:02:45.460Z,65.26
2023-03-11T10:03:45.340Z,63.50
2023-03-11T10:04:45.587Z,61.25
2023-03-11T10:05:45.312Z,60.09
2023-03-11T10:06:45.334Z,59.55
2023-03-11T10:07:45.340Z,59.03
2023-03-11T10:08:45.271Z,57.34
2023-03-11T10:09:45.267Z,56.31
2023-03-11T10:10:45.252Z,55.80
2023-03-11T10:11:45.304Z,55.38
2023-03-11T10:12:45.227Z,55.49
2023-03-11T10:13:45.253Z,55.69
2023-03-11T10:14:45.206Z,55.05
2023-03-11T10:15:45.213Z,56.08
2023-03-11T10:16:45.273Z,56.08
2023-03-11T10:17:45.171Z,56.81
2023-03-11T10:18:45.211Z,57.11
2023-03-11T10:19:45.210Z,57.14
2023-03-11T10:20:45.134Z,57.32
2023-03-11T10:21:45.154Z,56.18
2023-03-11T10:22:45.167Z,55.46
2023-03-11T10:23:45.093Z,56.39
2023-03-11T10:24:45.160Z,54.53
2023-03-11T10:25:45.077Z,55.36
2023-03-11T10:26:45.087Z,55.64
2023-03-11T10:27:45.043Z,55.54
2023-03-11T10:28:45.096Z,55.62
2023-03-11T10:29:45.065Z,54.38
2023-03-11T10:30:45.069Z,54.97
2023-03-11T10:31:45.031Z,54.06
2023-03-11T10:32:45.027Z,54.63
2023-03-11T10:33:47.261Z,55.41
2023-03-11T10:34:44.994Z,53.94
2023-03-11T10:35:45.023Z,53.74
2023-03-11T10:36:44.973Z,54.79
2023-03-11T10:37:49.642Z,56.03
2023-03-11T10:38:45.929Z,54.50
2023-03-11T10:39:44.934Z,54.09
2023-03-11T10:40:44.910Z,53.89
2023-03-11T10:41:44.886Z,50.99
2023-03-11T10:42:44.926Z,52.52
2023-03-11T10:43:44.871Z,53.61
2023-03-11T10:44:44.868Z,52.91
2023-03-11T10:45:44.929Z,55.46
2023-03-11T10:46:44.850Z,55.36
2023-03-11T10:47:44.823Z,53.27
2023-03-11T10:48:44.867Z,53.76
2023-03-11T10:49:44.813Z,53.86
2023-03-11T10:50:44.807Z,54.22
2023-03-11T10:51:44.790Z,56.21
2023-03-11T10:52:44.785Z,55.77
2023-03-11T10:53:44.794Z,53.52
2023-03-11T10:54:44.737Z,54.02
2023-03-11T10:55:44.742Z,54.27
2023-03-11T10:56:44.740Z,53.63
2023-03-11T10:57:44.713Z,54.74
2023-03-11T10:58:44.751Z,52.98
2023-03-11T10:59:44.730Z,51.34
2023-03-11T11:00:44.685Z,51.21
2023-03-11T11:01:44.667Z,50.90
2023-03-11T11:02:44.652Z,50.10
2023-03-11T11:03:44.714Z,52.00
2023-03-11T11:04:44.629Z,52.21
2023-03-11T11:05:44.660Z,52.31
2023-03-11T11:06:44.610Z,52.55
2023-03-11T11:07:44.705Z,52.83
2023-03-11T11:08:44.582Z,54.46
2023-03-11T11:09:44.581Z,53.40
2023-03-11T11:10:44.571Z,50.12
2023-03-11T11:11:44.674Z,51.78
2023-03-11T11:12:44.571Z,50.41
2023-03-11T11:13:44.559Z,50.90
2023-03-11T11:14:44.564Z,50.49
2023-03-11T11:15:44.524Z,50.70
2023-03-11T11:16:44.597Z,50.54
2023-03-11T11:17:44.527Z,50.24
2023-03-11T11:18:44.485Z,49.60
2023-03-11T11:19:44.480Z,50.81
2023-03-11T11:20:44.470Z,51.76
2023-03-11T11:21:44.434Z,51.22
2023-03-11T11:22:44.480Z,51.53
2023-03-11T11:23:44.423Z,49.57
2023-03-11T11:24:44.421Z,51.63
2023-03-11T11:25:44.461Z,50.60
2023-03-11T11:26:44.398Z,49.80
2023-03-11T11:27:44.375Z,47.45
2023-03-11T11:28:44.384Z,49.74
2023-03-11T11:29:44.370Z,52.22
2023-03-11T11:30:44.471Z,50.91
2023-03-11T11:31:44.345Z,48.34
2023-03-11T11:32:44.339Z,47.70
2023-03-11T11:33:44.310Z,48.05
2023-03-11T11:34:44.365Z,48.49
2023-03-11T11:35:44.305Z,47.58
2023-03-11T11:36:44.304Z,48.14
2023-03-11T11:37:44.275Z,48.29
2023-03-11T11:38:44.267Z,49.40
2023-03-11T11:39:44.249Z,49.25
2023-03-11T11:40:44.255Z,49.54
2023-03-11T11:41:44.215Z,48.30
2023-03-11T11:42:44.220Z,48.02
2023-03-11T11:43:44.200Z,48.43
2023-03-11T11:44:44.188Z,48.04
2023-03-11T11:45:44.213Z,49.44
2023-03-11T11:46:44.176Z,48.76
2023-03-11T11:47:44.155Z,49.30
2023-03-11T11:48:44.165Z,50.10
2023-03-11T11:49:44.122Z,49.98
2023-03-11T11:50:44.106Z,49.94
2023-03-11T11:51:44.129Z,50.07
2023-03-11T11:52:45.180Z,50.76
2023-03-11T11:53:44.087Z,50.43
2023-03-11T11:54:44.111Z,50.84
2023-03-11T11:55:44.054Z,51.05
2023-03-11T11:56:44.044Z,50.46
2023-03-11T11:57:44.086Z,50.50
2023-03-11T11:58:44.044Z,51.10
2023-03-11T11:59:44.032Z,50.81
2023-03-11T12:00:43.995Z,51.02
2023-03-11T12:01:43.988Z,51.10
2023-03-11T12:02:43.975Z,51.39
2023-03-11T12:03:44.095Z,51.78
2023-03-11T12:04:43.965Z,50.84
2023-03-11T12:05:43.989Z,50.28
2023-03-11T12:06:43.961Z,49.74
2023-03-11T12:07:43.928Z,49.56
2023-03-11T12:08:43.930Z,49.48
2023-03-11T12:09:43.927Z,48.68
2023-03-11T12:10:43.902Z,49.58
2023-03-11T12:11:43.877Z,50.38
2023-03-11T12:12:43.871Z,49.05
2023-03-11T12:13:43.873Z,50.16
2023-03-11T12:14:43.909Z,49.41
2023-03-11T12:15:43.867Z,48.07
2023-03-11T12:16:43.835Z,48.10
2023-03-11T12:17:43.806Z,48.39
2023-03-11T12:18:43.799Z,49.19
2023-03-11T12:19:43.809Z,48.97
2023-03-11T12:20:43.811Z,48.04
2023-03-11T12:21:43.856Z,48.02
2023-03-11T12:22:43.768Z,47.58
2023-03-11T12:23:43.745Z,47.64
2023-03-11T12:24:43.724Z,46.73
2023-03-11T12:25:43.711Z,46.73
2023-03-11T12:26:43.729Z,45.61
2023-03-11T12:27:43.742Z,45.62
2023-03-11T12:28:43.711Z,46.20
2023-03-11T12:29:43.668Z,43.79
2023-03-11T12:30:43.732Z,45.05
2023-03-11T12:31:43.760Z,45.54
2023-03-11T12:32:43.714Z,47.66
2023-03-11T12:33:43.644Z,45.95
2023-03-11T12:34:43.611Z,45.67
2023-03-11T12:35:43.614Z,45.97
2023-03-11T12:36:43.696Z,45.34
2023-03-11T12:37:43.628Z,46.03
2023-03-11T12:38:43.580Z,45.19
2023-03-11T12:39:43.569Z,46.14
2023-03-11T12:40:43.568Z,44.57
2023-03-11T12:41:43.544Z,44.80
2023-03-11T12:42:43.521Z,43.98
2023-03-11T12:43:43.576Z,45.01
2023-03-11T12:44:43.501Z,45.91
2023-03-11T12:45:43.501Z,44.56
2023-03-11T12:46:43.527Z,46.40
2023-03-11T12:47:43.467Z,46.36
2023-03-11T12:48:43.467Z,46.56
2023-03-11T12:49:43.471Z,46.05
2023-03-11T12:50:43.448Z,44.23
2023-03-11T12:51:43.553Z,44.82
2023-03-11T12:52:43.413Z,44.14